TimeMDT,TemperatureF,Dew PointF,Humidity,Sea Level PressureIn,VisibilityMPH,Wind Direction,Wind SpeedMPH,Gust SpeedMPH,PrecipitationIn,Events,Conditions,WindDirDegrees,DateUTC
12:16 AM,59.0,42.8,55,30.41,10.0,WSW,5.8,-,N/A,,Clear,250,2013-08-19 06:16:00
12:36 AM,55.4,42.8,63,30.41,10.0,East,8.1,-,N/A,,Clear,90,2013-08-19 06:36:00
12:56 AM,53.6,42.8,67,30.41,10.0,Calm,Calm,-,N/A,,Clear,0,2013-08-19 06:56:00
1:16 AM,53.6,42.8,67,30.41,10.0,Calm,Calm,-,N/A,,Clear,0,2013-08-19 07:16:00
1:36 AM,51.8,41.0,67,30.41,10.0,Calm,Calm,-,N/A,,Clear,0,2013-08-19 07:36:00
1:56 AM,50.0,41.0,71,30.41,10.0,Calm,Calm,-,N/A,,Clear,0,2013-08-19 07:56:00
2:16 AM,50.0,41.0,71,30.41,10.0,SSE,4.6,-,N/A,,Clear,160,2013-08-19 08:16:00
2:36 AM,50.0,41.0,71,30.41,10.0,South,4.6,-,N/A,,Clear,180,2013-08-19 08:36:00
2:56 AM,50.0,41.0,71,30.41,10.0,East,6.9,-,N/A,,Clear,80,2013-08-19 08:56:00
3:16 AM,50.0,41.0,71,30.41,10.0,Calm,Calm,-,N/A,,Clear,0,2013-08-19 09:16:00
3:36 AM,46.4,39.2,76,30.42,10.0,SE,3.5,-,N/A,,Clear,140,2013-08-19 09:36:00
3:55 AM,44.6,39.2,81,30.42,10.0,Calm,Calm,-,N/A,,Clear,0,2013-08-19 09:55:00
4:16 AM,44.6,37.4,76,30.42,10.0,Calm,Calm,-,N/A,,Clear,0,2013-08-19 10:16:00
4:36 AM,44.6,39.2,81,30.42,10.0,Calm,Calm,-,N/A,,Clear,0,2013-08-19 10:36:00
4:56 AM,42.8,37.4,81,30.42,10.0,Calm,Calm,-,N/A,,Clear,0,2013-08-19 10:56:00
5:15 AM,44.6,37.4,76,30.42,10.0,Calm,Calm,-,N/A,,Clear,0,2013-08-19 11:15:00
5:36 AM,41.0,35.6,81,30.43,10.0,ESE,3.5,-,N/A,,Clear,120,2013-08-19 11:36:00
5:55 AM,42.8,37.4,81,30.43,10.0,Calm,Calm,-,N/A,,Clear,0,2013-08-19 11:55:00
6:16 AM,41.0,35.6,81,30.44,10.0,Calm,Calm,-,N/A,,Clear,0,2013-08-19 12:16:00
6:35 AM,41.0,35.6,81,30.44,10.0,Calm,Calm,-,N/A,,Clear,0,2013-08-19 12:35:00
6:56 AM,41.0,35.6,81,30.45,10.0,Calm,Calm,-,N/A,,Clear,0,2013-08-19 12:56:00
7:15 AM,42.8,37.4,81,30.46,10.0,Calm,Calm,-,N/A,,Clear,0,2013-08-19 13:15:00
7:36 AM,46.4,39.2,76,30.46,10.0,Calm,Calm,-,N/A,,Clear,0,2013-08-19 13:36:00
7:56 AM,50.0,39.2,66,30.46,10.0,Calm,Calm,-,N/A,,Clear,0,2013-08-19 13:56:00
8:16 AM,51.8,39.2,62,30.46,10.0,Calm,Calm,-,N/A,,Clear,0,2013-08-19 14:16:00
8:36 AM,53.6,39.2,58,30.46,10.0,Calm,Calm,-,N/A,,Clear,0,2013-08-19 14:36:00
8:56 AM,55.4,41.0,58,30.46,10.0,Calm,Calm,-,N/A,,Clear,0,2013-08-19 14:56:00
9:16 AM,57.2,41.0,55,30.45,10.0,Calm,Calm,-,N/A,,Clear,0,2013-08-19 15:16:00
9:36 AM,59.0,41.0,51,30.45,10.0,Calm,Calm,-,N/A,,Clear,0,2013-08-19 15:36:00
9:56 AM,60.8,39.2,45,30.44,10.0,Calm,Calm,-,N/A,,Clear,0,2013-08-19 15:56:00
10:16 AM,64.4,39.2,40,30.43,10.0,Calm,Calm,-,N/A,,Clear,0,2013-08-19 16:16:00
10:36 AM,68.0,41.0,37,30.42,10.0,NE,3.5,-,N/A,,Clear,50,2013-08-19 16:36:00
10:56 AM,69.8,39.2,33,30.41,10.0,Calm,Calm,-,N/A,,Clear,0,2013-08-19 16:56:00
11:16 AM,69.8,39.2,33,30.41,10.0,Calm,Calm,-,N/A,,Clear,0,2013-08-19 17:16:00
11:35 AM,73.4,39.2,29,30.40,10.0,Calm,Calm,-,N/A,,Clear,0,2013-08-19 17:35:00
11:56 AM,73.4,37.4,27,30.39,10.0,Calm,Calm,-,N/A,,Clear,0,2013-08-19 17:56:00
12:16 PM,77.0,35.6,22,30.38,10.0,Calm,Calm,-,N/A,,Clear,0,2013-08-19 18:16:00
12:36 PM,78.8,35.6,21,30.37,10.0,WSW,4.6,-,N/A,,Clear,240,2013-08-19 18:36:00
12:56 PM,80.6,32.0,17,30.36,10.0,WNW,4.6,-,N/A,,Clear,290,2013-08-19 18:56:00
1:16 PM,82.4,32.0,16,30.34,10.0,West,4.6,-,N/A,,Clear,270,2013-08-19 19:16:00
1:36 PM,82.4,26.6,13,30.34,10.0,SW,4.6,-,N/A,,Clear,220,2013-08-19 19:36:00
1:56 PM,86.0,26.6,12,30.33,10.0,SW,8.1,-,N/A,,Clear,230,2013-08-19 19:56:00
2:16 PM,87.8,21.2,9,30.32,10.0,SSW,5.8,-,N/A,,Clear,210,2013-08-19 20:16:00
2:36 PM,89.6,17.6,7,30.31,10.0,South,3.5,-,N/A,,Clear,180,2013-08-19 20:36:00
2:56 PM,89.6,21.2,8,30.31,10.0,WSW,6.9,-,N/A,,Clear,240,2013-08-19 20:56:00
3:16 PM,87.8,24.8,10,30.31,10.0,NNE,15.0,27.6,N/A,,Scattered Clouds,30,2013-08-19 21:16:00
3:36 PM,89.6,26.6,10,30.30,10.0,NE,11.5,18.4,N/A,,Scattered Clouds,40,2013-08-19 21:36:00
3:56 PM,87.8,21.2,9,30.29,10.0,NE,11.5,18.4,N/A,,Clear,50,2013-08-19 21:56:00
4:16 PM,89.6,21.2,8,30.28,10.0,NE,8.1,16.1,N/A,,Clear,40,2013-08-19 22:16:00
4:36 PM,89.6,21.2,8,30.28,10.0,Calm,Calm,-,N/A,,Clear,0,2013-08-19 22:36:00
4:56 PM,89.6,14.0,6,30.27,10.0,Calm,Calm,-,N/A,,Clear,0,2013-08-19 22:56:00
5:16 PM,87.8,17.6,8,30.26,10.0,NE,10.4,-,N/A,,Clear,40,2013-08-19 23:16:00
5:36 PM,87.8,19.4,8,30.26,10.0,NNE,10.4,-,N/A,,Clear,30,2013-08-19 23:36:00
5:56 PM,87.8,19.4,8,30.26,10.0,NNE,4.6,-,N/A,,Clear,20,2013-08-19 23:56:00
6:16 PM,82.4,19.4,10,30.25,10.0,Calm,Calm,-,N/A,,Clear,0,2013-08-20 00:16:00
6:36 PM,82.4,19.4,10,30.25,10.0,Calm,Calm,-,N/A,,Clear,0,2013-08-20 00:36:00
6:56 PM,80.6,23.0,12,30.25,10.0,West,4.6,-,N/A,,Clear,280,2013-08-20 00:56:00
7:16 PM,80.6,23.0,12,30.25,10.0,NW,8.1,-,N/A,,Clear,320,2013-08-20 01:16:00
7:35 PM,78.8,26.6,15,30.25,10.0,NNW,6.9,-,N/A,,Clear,330,2013-08-20 01:35:00
7:56 PM,77.0,26.6,16,30.26,10.0,NW,5.8,-,N/A,,Clear,320,2013-08-20 01:56:00
8:16 PM,69.8,32.0,25,30.26,10.0,Calm,Calm,-,N/A,,Clear,0,2013-08-20 02:16:00
8:36 PM,68.0,33.8,28,30.26,10.0,Calm,Calm,-,N/A,,Clear,0,2013-08-20 02:36:00
8:55 PM,68.0,32.0,26,30.27,10.0,Calm,Calm,-,N/A,,Clear,0,2013-08-20 02:55:00
9:15 PM,68.0,32.0,26,30.29,10.0,Calm,Calm,-,N/A,,Clear,0,2013-08-20 03:15:00
9:36 PM,62.6,32.0,32,30.30,10.0,SSW,6.9,-,N/A,,Clear,210,2013-08-20 03:36:00
9:56 PM,66.2,32.0,28,30.30,10.0,South,6.9,-,N/A,,Clear,180,2013-08-20 03:56:00
10:16 PM,60.8,32.0,34,30.31,10.0,WNW,3.5,-,N/A,,Clear,300,2013-08-20 04:16:00
10:36 PM,62.6,33.8,34,30.31,10.0,Calm,Calm,-,N/A,,Clear,0,2013-08-20 04:36:00
10:56 PM,62.6,33.8,34,30.31,10.0,Calm,Calm,-,N/A,,Clear,0,2013-08-20 04:56:00
11:16 PM,60.8,33.8,36,30.31,10.0,ESE,8.1,-,N/A,,Clear,120,2013-08-20 05:16:00
11:36 PM,60.8,32.0,34,30.32,10.0,ESE,4.6,-,N/A,,Clear,120,2013-08-20 05:36:00
11:56 PM,60.8,33.8,36,30.32,10.0,Calm,Calm,-,N/A,,Clear,0,2013-08-20 05:56:00